createdAt,value
2018-04-16T00:01:50.140Z,18.10
2018-04-16T00:04:17.571Z,18.50
2018-04-16T00:06:44.977Z,19.93
2018-04-16T00:09:12.360Z,19.13
2018-04-16T00:11:39.751Z,19.30
2018-04-16T00:14:07.200Z,19.37
2018-04-16T00:16:34.562Z,20.13
2018-04-16T00:19:01.965Z,20.40
2018-04-16T00:21:29.389Z,18.87
2018-04-16T00:23:56.763Z,20.13
2018-04-16T00:26:24.134Z,20.37
2018-04-16T00:28:51.528Z,20.50
2018-04-16T00:31:18.973Z,19.63
2018-04-16T00:33:51.965Z,21.33
2018-04-16T00:36:34.236Z,21.27
2018-04-16T00:39:07.501Z,20.27
2018-04-16T00:41:40.578Z,19.70
2018-04-16T00:44:13.789Z,20.30
2018-04-16T00:46:46.967Z,19.93
2018-04-16T00:49:20.136Z,19.97
2018-04-16T00:51:53.452Z,21.10
2018-04-16T00:54:26.728Z,21.20
2018-04-16T00:56:59.802Z,22.07
2018-04-16T00:59:32.884Z,22.33
2018-04-16T01:02:20.165Z,22.17
2018-04-16T01:04:53.191Z,21.83
2018-04-16T01:07:26.280Z,21.20
2018-04-16T01:10:10.296Z,21.90
2018-04-16T01:12:43.440Z,21.30
2018-04-16T01:15:16.687Z,22.43
2018-04-16T01:17:49.744Z,23.30
2018-04-16T01:20:22.955Z,22.00
2018-04-16T01:22:55.991Z,22.70
2018-04-16T01:25:29.131Z,23.07
2018-04-16T01:28:02.184Z,22.13
2018-04-16T01:30:35.300Z,22.10
2018-04-16T01:33:08.455Z,22.77
2018-04-16T01:35:41.558Z,21.80
2018-04-16T01:38:14.634Z,23.00
2018-04-16T01:40:47.805Z,22.47
2018-04-16T01:43:20.822Z,23.90
2018-04-16T01:45:53.934Z,24.03
2018-04-16T01:48:27.079Z,22.97
2018-04-16T01:51:00.318Z,23.23
2018-04-16T01:53:33.411Z,23.70
2018-04-16T01:56:06.491Z,23.17
2018-04-16T01:58:39.551Z,22.23
2018-04-16T02:01:12.730Z,22.43
2018-04-16T02:03:45.710Z,22.30
2018-04-16T02:06:18.898Z,22.80
2018-04-16T02:08:52.166Z,22.57
2018-04-16T02:11:25.227Z,23.13
2018-04-16T02:13:58.363Z,22.17
2018-04-16T02:16:31.586Z,23.67
2018-04-16T02:19:04.600Z,22.13
2018-04-16T02:21:37.791Z,23.40
2018-04-16T02:24:10.952Z,21.70
2018-04-16T02:26:43.991Z,22.33
2018-04-16T02:29:17.141Z,25.43
2018-04-16T02:31:50.205Z,22.80
2018-04-16T02:34:23.467Z,22.97
2018-04-16T02:36:56.544Z,25.57
2018-04-16T02:39:29.727Z,24.73
2018-04-16T02:42:02.928Z,24.80
2018-04-16T02:44:35.937Z,27.10
2018-04-16T02:47:08.992Z,25.20
2018-04-16T02:49:42.116Z,24.97
2018-04-16T02:52:15.263Z,24.70
2018-04-16T02:54:48.339Z,25.33
2018-04-16T02:57:21.366Z,23.93
2018-04-16T02:59:54.752Z,24.20
2018-04-16T03:02:27.916Z,25.47
2018-04-16T03:05:00.994Z,25.10
2018-04-16T03:07:34.327Z,24.10
2018-04-16T03:10:07.519Z,23.10
2018-04-16T03:12:40.526Z,24.47
2018-04-16T03:15:13.655Z,24.87
2018-04-16T03:17:46.787Z,24.13
2018-04-16T03:20:19.964Z,24.33
2018-04-16T03:22:53.152Z,24.60
2018-04-16T03:25:26.160Z,24.50
2018-04-16T03:27:59.215Z,23.83
2018-04-16T03:30:32.332Z,24.40
2018-04-16T03:33:05.457Z,24.17
2018-04-16T03:35:38.699Z,26.13
2018-04-16T03:38:11.835Z,24.80
2018-04-16T03:40:44.935Z,24.20
2018-04-16T03:43:18.056Z,23.87
2018-04-16T03:45:51.181Z,22.90
2018-04-16T03:48:24.364Z,24.97
2018-04-16T03:50:57.509Z,24.53
2018-04-16T03:53:44.635Z,25.60
2018-04-16T03:56:12.672Z,24.67
2018-04-16T03:58:40.019Z,25.57
2018-04-16T04:01:07.441Z,25.17
2018-04-16T04:03:34.837Z,25.70
2018-04-16T04:06:02.273Z,25.57
2018-04-16T04:08:29.679Z,25.13
2018-04-16T04:10:57.052Z,26.13
2018-04-16T04:13:24.431Z,25.97
2018-04-16T04:15:51.897Z,26.17
2018-04-16T04:18:19.324Z,26.27
2018-04-16T04:20:46.774Z,27.77
2018-04-16T04:23:20.177Z,26.10
2018-04-16T04:25:53.446Z,26.20
2018-04-16T04:28:26.888Z,26.50
2018-04-16T04:30:54.271Z,27.30
2018-04-16T04:33:21.657Z,27.00
2018-04-16T04:35:49.040Z,26.50
2018-04-16T04:38:16.463Z,26.50
2018-04-16T04:40:43.824Z,26.87
2018-04-16T04:43:11.194Z,27.57
2018-04-16T04:45:38.726Z,27.37
2018-04-16T04:48:06.112Z,27.37
2018-04-16T04:50:33.495Z,27.00
2018-04-16T04:53:00.901Z,25.93
2018-04-16T04:55:28.288Z,26.43
2018-04-16T04:57:55.691Z,26.57
2018-04-16T05:00:23.121Z,25.63
2018-04-16T05:02:50.520Z,26.57
2018-04-16T05:05:17.970Z,26.40
2018-04-16T05:07:45.341Z,25.83
2018-04-16T05:10:12.747Z,24.70
2018-04-16T05:12:40.196Z,26.20
2018-04-16T05:15:07.583Z,25.67
2018-04-16T05:17:35.023Z,24.80
2018-04-16T05:20:02.379Z,25.40
2018-04-16T05:22:29.734Z,28.13
2018-04-16T05:24:57.143Z,28.13
2018-04-16T05:27:24.579Z,27.13
2018-04-16T05:29:51.954Z,27.77
2018-04-16T05:32:19.301Z,27.83
2018-04-16T05:34:46.733Z,28.03
2018-04-16T05:37:14.143Z,28.03
2018-04-16T05:39:41.498Z,28.07
2018-04-16T05:42:08.940Z,26.83
2018-04-16T05:44:36.341Z,26.20
2018-04-16T05:47:03.780Z,28.60
2018-04-16T05:49:31.171Z,27.23
2018-04-16T05:51:58.548Z,28.03
2018-04-16T05:54:25.940Z,28.57
2018-04-16T05:56:53.345Z,27.80
2018-04-16T05:59:20.686Z,26.83
2018-04-16T06:01:48.085Z,28.57
2018-04-16T06:04:15.503Z,28.13
2018-04-16T06:06:42.907Z,28.37
2018-04-16T06:09:10.312Z,28.60
2018-04-16T06:11:37.667Z,29.90
2018-04-16T06:14:05.079Z,28.47
2018-04-16T06:16:32.471Z,27.97
2018-04-16T06:18:59.896Z,27.90
2018-04-16T06:23:09.634Z,27.43
2018-04-16T06:25:37.025Z,27.87
2018-04-16T06:28:04.374Z,29.70
2018-04-16T06:30:31.746Z,29.57
2018-04-16T06:32:59.172Z,29.40
2018-04-16T06:35:26.560Z,30.57
2018-04-16T06:37:53.951Z,30.10
2018-04-16T06:40:21.355Z,28.87
2018-04-16T06:42:48.848Z,28.87
2018-04-16T06:45:16.335Z,29.37
2018-04-16T06:47:43.726Z,28.40
2018-04-16T06:50:11.110Z,28.23
2018-04-16T06:52:38.517Z,27.90
2018-04-16T06:55:05.926Z,29.13
2018-04-16T06:57:33.272Z,28.30
2018-04-16T07:00:00.774Z,29.50
2018-04-16T07:02:28.441Z,27.53
2018-04-16T07:04:55.869Z,28.50
2018-04-16T07:07:23.223Z,27.80
2018-04-16T07:09:50.587Z,28.00
2018-04-16T07:12:18.289Z,28.30
2018-04-16T07:14:45.662Z,28.37
2018-04-16T07:17:13.092Z,31.47
2018-04-16T07:19:40.557Z,30.80
2018-04-16T07:22:08.033Z,30.57
2018-04-16T07:24:35.449Z,32.70
2018-04-16T07:27:02.924Z,32.10
2018-04-16T07:29:30.318Z,30.90
2018-04-16T07:31:57.671Z,35.63
2018-04-16T07:34:25.093Z,32.67
2018-04-16T07:36:52.511Z,35.03
2018-04-16T07:39:19.886Z,34.30
2018-04-16T07:41:47.283Z,35.23
2018-04-16T07:44:14.627Z,36.10
2018-04-16T07:46:42.041Z,34.07
2018-04-16T07:49:09.439Z,35.77
2018-04-16T07:51:36.803Z,36.87
2018-04-16T07:54:04.154Z,35.13
2018-04-16T07:56:31.539Z,36.60
2018-04-16T07:58:58.898Z,35.00
2018-04-16T08:01:26.310Z,34.77
2018-04-16T08:03:53.763Z,35.43
2018-04-16T08:06:21.118Z,35.37
2018-04-16T08:08:48.475Z,36.13
2018-04-16T08:11:15.911Z,38.47
2018-04-16T08:13:43.270Z,34.50
2018-04-16T08:16:10.656Z,37.47
2018-04-16T08:18:38.059Z,36.50
2018-04-16T08:21:05.447Z,39.83
2018-04-16T08:23:32.839Z,38.63
2018-04-16T08:26:00.228Z,36.27
2018-04-16T08:28:27.791Z,37.33
2018-04-16T08:30:55.175Z,35.40
2018-04-16T08:33:22.567Z,35.07
2018-04-16T08:35:50.080Z,33.80
2018-04-16T08:38:17.526Z,32.90
2018-04-16T08:40:44.896Z,34.93
2018-04-16T08:43:12.243Z,33.50
2018-04-16T08:45:39.659Z,34.03
2018-04-16T08:48:07.073Z,32.97
2018-04-16T08:50:34.450Z,33.50
2018-04-16T08:53:01.869Z,32.27
2018-04-16T08:55:29.255Z,30.30
2018-04-16T08:57:56.638Z,30.30
2018-04-16T09:00:24.063Z,30.70
2018-04-16T09:02:51.444Z,32.93
2018-04-16T09:05:18.876Z,30.70
2018-04-16T09:07:46.305Z,31.67
2018-04-16T09:10:13.691Z,33.60
2018-04-16T09:12:41.084Z,30.47
2018-04-16T09:15:08.515Z,31.27
2018-04-16T09:17:35.899Z,31.30
2018-04-16T09:20:03.262Z,32.23
2018-04-16T09:22:30.684Z,32.30
2018-04-16T09:24:58.036Z,31.27
2018-04-16T09:27:25.419Z,29.93
2018-04-16T09:29:52.859Z,31.50
2018-04-16T09:32:20.247Z,31.47
2018-04-16T09:34:47.646Z,31.20
2018-04-16T09:37:15.076Z,33.30
2018-04-16T09:39:42.446Z,33.13
2018-04-16T09:42:09.821Z,32.33
2018-04-16T09:44:37.370Z,34.30
2018-04-16T09:47:04.718Z,33.20
2018-04-16T09:49:32.144Z,33.40
2018-04-16T09:51:59.555Z,33.10
2018-04-16T09:54:26.984Z,31.77
2018-04-16T09:56:54.408Z,32.30
2018-04-16T09:59:21.915Z,30.30
2018-04-16T10:01:49.990Z,29.47
2018-04-16T10:04:17.391Z,28.40
2018-04-16T10:06:44.774Z,29.63
2018-04-16T10:09:12.528Z,29.10
2018-04-16T10:11:39.915Z,28.70
2018-04-16T10:14:07.337Z,29.10
2018-04-16T10:16:34.748Z,29.40
2018-04-16T10:19:02.092Z,29.90
2018-04-16T10:21:29.480Z,29.73
2018-04-16T10:23:56.878Z,28.47
2018-04-16T10:26:24.239Z,28.63
2018-04-16T10:28:51.590Z,28.77
2018-04-16T10:31:19.040Z,28.73
2018-04-16T10:33:46.469Z,27.10
2018-04-16T10:36:13.851Z,29.20
2018-04-16T10:38:41.259Z,27.50
2018-04-16T10:41:08.668Z,27.20
2018-04-16T10:43:36.040Z,28.50
2018-04-16T10:46:03.471Z,27.67
2018-04-16T10:48:30.882Z,26.03
2018-04-16T10:50:58.270Z,27.33
2018-04-16T10:53:25.665Z,27.90
2018-04-16T10:55:53.027Z,26.73
2018-04-16T10:58:20.408Z,26.83
2018-04-16T11:00:47.790Z,27.63
2018-04-16T11:03:15.145Z,27.47
2018-04-16T11:05:42.579Z,27.17
2018-04-16T11:08:10.003Z,25.87
2018-04-16T11:10:37.384Z,24.67
2018-04-16T11:13:04.784Z,27.03
2018-04-16T11:15:32.211Z,27.53
2018-04-16T11:17:59.635Z,24.70
2018-04-16T11:20:26.986Z,26.30
2018-04-16T11:22:54.404Z,26.43
2018-04-16T11:25:21.770Z,24.20
2018-04-16T11:27:49.148Z,26.13
2018-04-16T11:30:16.576Z,24.00
2018-04-16T11:32:43.947Z,24.17
2018-04-16T11:35:11.351Z,23.30
2018-04-16T11:37:38.767Z,24.53
2018-04-16T11:40:06.207Z,22.83
2018-04-16T11:42:33.591Z,23.77
2018-04-16T11:45:01.019Z,22.83
2018-04-16T11:47:28.394Z,23.73
2018-04-16T11:49:55.772Z,23.50
2018-04-16T11:52:23.190Z,23.90
2018-04-16T11:54:50.551Z,23.23
2018-04-16T11:57:17.915Z,24.37
2018-04-16T11:59:45.341Z,22.60
2018-04-16T12:02:12.754Z,22.17
2018-04-16T12:04:40.210Z,20.67
2018-04-16T12:07:07.704Z,20.37
2018-04-16T12:09:35.054Z,20.00
2018-04-16T12:12:02.428Z,20.23
2018-04-16T12:14:29.864Z,19.00
2018-04-16T12:16:57.249Z,19.83
2018-04-16T12:19:24.599Z,18.83
2018-04-16T12:21:51.995Z,18.83
2018-04-16T12:24:19.384Z,18.43
2018-04-16T12:26:46.739Z,17.40
2018-04-16T12:29:14.119Z,18.43
2018-04-16T12:31:41.500Z,19.70
2018-04-16T12:34:08.920Z,18.97
2018-04-16T12:36:36.350Z,17.47
2018-04-16T12:39:03.868Z,18.47
2018-04-16T12:41:31.206Z,17.93
2018-04-16T12:43:58.577Z,18.43
2018-04-16T12:46:25.931Z,18.03
2018-04-16T12:48:53.306Z,20.73
2018-04-16T12:51:20.781Z,20.50
2018-04-16T12:53:48.139Z,19.90
2018-04-16T12:56:15.659Z,20.30
2018-04-16T12:58:43.011Z,20.80
2018-04-16T13:01:10.396Z,24.47
2018-04-16T13:03:37.799Z,25.40
2018-04-16T13:06:05.184Z,24.17
2018-04-16T13:08:32.542Z,23.47
2018-04-16T13:10:59.946Z,23.20
2018-04-16T13:13:27.293Z,23.80
2018-04-16T13:15:54.669Z,21.50
2018-04-16T13:18:22.092Z,22.10
2018-04-16T13:20:49.442Z,21.87
2018-04-16T13:23:16.820Z,20.47
2018-04-16T13:25:44.248Z,21.20
2018-04-16T13:28:11.615Z,20.90
2018-04-16T13:30:39.012Z,20.70
2018-04-16T13:33:06.410Z,18.90
2018-04-16T13:35:33.796Z,19.10
2018-04-16T13:38:01.160Z,18.83
2018-04-16T13:40:28.565Z,20.83
2018-04-16T13:42:55.919Z,18.13
2018-04-16T13:45:23.411Z,18.70
2018-04-16T13:47:50.809Z,19.47
2018-04-16T13:50:18.167Z,17.13
2018-04-16T13:52:45.584Z,18.60
2018-04-16T13:55:12.995Z,20.10
2018-04-16T13:57:40.433Z,20.23
2018-04-16T14:00:07.818Z,21.47
2018-04-16T14:02:35.177Z,22.87
2018-04-16T14:05:02.604Z,22.50
2018-04-16T14:07:29.969Z,22.90
2018-04-16T14:09:57.367Z,21.83
2018-04-16T14:12:24.774Z,23.27
2018-04-16T14:14:52.124Z,22.37
2018-04-16T14:17:19.504Z,23.00
2018-04-16T14:19:46.907Z,22.57
2018-04-16T14:22:14.294Z,22.00
2018-04-16T14:24:41.713Z,21.57
2018-04-16T14:27:09.099Z,22.30
2018-04-16T14:29:36.523Z,21.00
2018-04-16T14:32:03.875Z,22.10
2018-04-16T14:34:31.258Z,23.63
2018-04-16T14:36:58.644Z,24.63
2018-04-16T14:39:26.029Z,23.77
2018-04-16T14:41:53.453Z,26.43
2018-04-16T14:44:20.945Z,28.13
2018-04-16T14:46:48.300Z,26.63
2018-04-16T14:49:15.724Z,27.77
2018-04-16T14:51:43.090Z,27.93
2018-04-16T14:54:10.488Z,28.20
2018-04-16T14:56:38.026Z,31.30
2018-04-16T14:59:05.432Z,29.10
2018-04-16T15:01:32.860Z,30.47
2018-04-16T15:04:00.280Z,30.27
2018-04-16T15:06:27.693Z,32.20
2018-04-16T15:08:55.055Z,30.60
2018-04-16T15:11:22.436Z,30.07
2018-04-16T15:13:49.860Z,33.33
2018-04-16T15:16:17.296Z,33.67
2018-04-16T15:18:44.681Z,32.30
2018-04-16T15:21:12.063Z,33.10
2018-04-16T15:23:39.497Z,34.10
2018-04-16T15:26:06.853Z,33.87
2018-04-16T15:28:34.233Z,34.80
2018-04-16T15:31:01.649Z,33.93
2018-04-16T15:33:29.017Z,36.17
2018-04-16T15:35:56.401Z,35.37
2018-04-16T15:38:23.795Z,35.00
2018-04-16T15:40:51.142Z,37.33
2018-04-16T15:43:18.520Z,38.73
2018-04-16T15:45:45.901Z,39.63
2018-04-16T15:48:13.267Z,40.20
2018-04-16T15:50:40.676Z,39.07
2018-04-16T15:53:08.038Z,39.10
2018-04-16T15:55:35.439Z,38.60
2018-04-16T15:58:03.534Z,40.13
2018-04-16T16:00:30.919Z,40.57
2018-04-16T16:02:58.309Z,41.07
2018-04-16T16:05:25.843Z,40.90
2018-04-16T16:07:53.228Z,40.23
2018-04-16T16:10:20.602Z,38.37
2018-04-16T16:12:48.012Z,40.27
2018-04-16T16:15:15.405Z,41.40
2018-04-16T16:17:42.755Z,42.53
2018-04-16T16:20:10.159Z,40.47
2018-04-16T16:22:37.521Z,42.57
2018-04-16T16:25:04.908Z,42.17
2018-04-16T16:27:32.344Z,41.43
2018-04-16T16:29:59.712Z,42.20
2018-04-16T16:32:27.136Z,41.20
2018-04-16T16:34:54.558Z,40.73
2018-04-16T16:37:21.952Z,39.87
2018-04-16T16:39:49.308Z,39.50
2018-04-16T16:42:16.700Z,42.63
2018-04-16T16:44:44.144Z,41.60
2018-04-16T16:47:11.649Z,42.20
2018-04-16T16:49:39.005Z,42.30
2018-04-16T16:52:06.398Z,41.57
2018-04-16T16:54:33.784Z,43.77
2018-04-16T16:57:01.177Z,43.10
2018-04-16T16:59:28.612Z,42.23
2018-04-16T17:01:56.024Z,39.43
2018-04-16T17:04:23.407Z,41.50
2018-04-16T17:06:50.886Z,43.53
2018-04-16T17:09:18.269Z,42.77
2018-04-16T17:11:45.653Z,40.53
2018-04-16T17:14:13.050Z,41.30
2018-04-16T17:16:40.549Z,42.00
2018-04-16T17:19:07.934Z,43.00
2018-04-16T17:21:35.327Z,42.60
2018-04-16T17:24:02.693Z,41.50
2018-04-16T17:26:30.133Z,43.17
2018-04-16T17:28:57.509Z,42.70
2018-04-16T17:31:25.056Z,44.37
2018-04-16T17:33:52.519Z,43.87
2018-04-16T17:36:19.926Z,44.97
2018-04-16T17:38:47.342Z,43.60
2018-04-16T17:41:14.812Z,44.23
2018-04-16T17:43:42.182Z,47.20
2018-04-16T17:46:09.570Z,44.87
2018-04-16T17:48:36.952Z,44.60
2018-04-16T17:51:04.340Z,45.37
2018-04-16T17:53:31.764Z,45.00
2018-04-16T17:55:59.149Z,44.13
2018-04-16T17:58:26.506Z,45.73
2018-04-16T18:00:53.915Z,46.77
2018-04-16T18:03:21.304Z,45.50
2018-04-16T18:05:48.688Z,47.90
2018-04-16T18:08:16.138Z,46.30
2018-04-16T18:10:43.520Z,45.70
2018-04-16T18:13:10.923Z,46.60
2018-04-16T18:15:38.342Z,47.57
2018-04-16T18:18:05.791Z,44.70
2018-04-16T18:20:33.304Z,45.13
2018-04-16T18:23:00.836Z,47.20
2018-04-16T18:25:28.224Z,49.90
2018-04-16T18:27:55.667Z,47.83
2018-04-16T18:30:23.109Z,46.37
2018-04-16T18:32:50.607Z,46.17
2018-04-16T18:35:17.942Z,44.73
2018-04-16T18:37:45.520Z,46.00
2018-04-16T18:40:12.999Z,46.60
2018-04-16T18:42:40.420Z,45.73
2018-04-16T18:45:07.807Z,44.13
2018-04-16T18:47:35.223Z,45.10
2018-04-16T18:50:02.692Z,45.63
2018-04-16T18:52:30.143Z,42.97
2018-04-16T18:54:57.677Z,44.20
2018-04-16T18:57:25.027Z,46.10
2018-04-16T18:59:52.399Z,42.60
2018-04-16T19:02:19.808Z,44.50
2018-04-16T19:04:47.224Z,42.40
2018-04-16T19:07:14.712Z,43.30
2018-04-16T19:09:42.077Z,42.20
2018-04-16T19:12:09.586Z,44.80
2018-04-16T19:14:37.007Z,42.70
2018-04-16T19:17:04.823Z,45.43
2018-04-16T19:19:32.187Z,44.83
2018-04-16T19:21:59.604Z,45.17
2018-04-16T19:24:27.003Z,45.20
2018-04-16T19:27:00.090Z,46.30
2018-04-16T19:29:27.597Z,45.30
2018-04-16T19:31:55.046Z,45.20
2018-04-16T19:34:28.258Z,43.40
2018-04-16T19:36:55.701Z,47.00
2018-04-16T19:39:23.169Z,46.60
2018-04-16T19:41:56.246Z,44.90
2018-04-16T19:44:23.723Z,44.60
2018-04-16T19:46:51.436Z,45.30
2018-04-16T19:49:24.800Z,46.20
2018-04-16T19:51:52.394Z,43.00
2018-04-16T19:54:19.914Z,42.50
2018-04-16T19:56:53.202Z,41.60
2018-04-16T19:59:20.690Z,43.57
2018-04-16T20:01:53.796Z,42.43
2018-04-16T20:04:21.231Z,41.10
2018-04-16T20:06:48.663Z,42.27
2018-04-16T20:09:16.115Z,43.70
2018-04-16T20:11:43.499Z,39.60
2018-04-16T20:14:10.898Z,38.83
2018-04-16T20:16:38.363Z,36.90
2018-04-16T20:19:05.719Z,36.00
2018-04-16T20:21:33.075Z,35.23
2018-04-16T20:24:00.559Z,34.70
2018-04-16T20:26:27.967Z,34.93
2018-04-16T20:28:55.350Z,33.23
2018-04-16T20:31:22.883Z,34.20
2018-04-16T20:33:50.264Z,34.90
2018-04-16T20:36:17.644Z,35.03
2018-04-16T20:38:45.022Z,32.60
2018-04-16T20:41:12.402Z,35.17
2018-04-16T20:43:39.910Z,31.70
2018-04-16T20:46:07.258Z,32.03
2018-04-16T20:48:34.658Z,33.23
2018-04-16T20:51:02.043Z,32.80
2018-04-16T20:53:29.448Z,33.00
2018-04-16T20:55:56.979Z,35.47
2018-04-16T20:58:24.333Z,34.27
2018-04-16T21:00:51.715Z,31.73
2018-04-16T21:03:19.120Z,33.57
2018-04-16T21:05:46.512Z,34.63
2018-04-16T21:08:13.899Z,34.17
2018-04-16T21:10:41.279Z,37.30
2018-04-16T21:13:08.640Z,33.90
2018-04-16T21:15:36.008Z,33.30
2018-04-16T21:18:03.362Z,36.13
2018-04-16T21:20:30.733Z,36.27
2018-04-16T21:22:58.147Z,35.27
2018-04-16T21:25:25.508Z,36.60
2018-04-16T21:27:52.854Z,36.13
2018-04-16T21:30:20.271Z,36.40
2018-04-16T21:32:47.662Z,37.60
2018-04-16T21:35:15.079Z,37.60
2018-04-16T21:37:42.475Z,38.23
2018-04-16T21:40:09.851Z,39.73
2018-04-16T21:42:37.268Z,38.70
2018-04-16T21:45:04.706Z,38.17
2018-04-16T21:47:32.063Z,38.93
2018-04-16T21:49:59.435Z,41.27
2018-04-16T21:52:26.810Z,39.30
2018-04-16T21:54:54.196Z,41.07
2018-04-16T21:57:21.600Z,41.50
2018-04-16T21:59:48.962Z,41.47
2018-04-16T22:02:16.316Z,40.70
2018-04-16T22:04:43.728Z,40.00
2018-04-16T22:07:11.116Z,41.00
2018-04-16T22:09:38.483Z,42.00
2018-04-16T22:12:05.898Z,41.90
2018-04-16T22:14:33.294Z,41.90
2018-04-16T22:17:00.655Z,41.00
2018-04-16T22:19:28.129Z,42.40
2018-04-16T22:21:55.558Z,40.30
2018-04-16T22:24:22.971Z,43.70
2018-04-16T22:26:50.382Z,42.90
2018-04-16T22:29:17.816Z,43.30
2018-04-16T22:31:45.211Z,43.20
2018-04-16T22:34:12.600Z,42.80
2018-04-16T22:36:40.442Z,44.10
2018-04-16T22:39:07.835Z,41.90
2018-04-16T22:41:35.242Z,42.93
2018-04-16T22:44:02.622Z,41.77
2018-04-16T22:46:29.974Z,43.00
2018-04-16T22:48:57.384Z,41.27
2018-04-16T22:51:24.771Z,42.97
2018-04-16T22:53:52.122Z,43.00
2018-04-16T22:56:19.515Z,41.47
2018-04-16T22:58:46.932Z,42.27
2018-04-16T23:01:14.512Z,43.90
2018-04-16T23:03:41.867Z,42.87
2018-04-16T23:06:09.218Z,42.70
2018-04-16T23:08:36.634Z,43.73
2018-04-16T23:11:03.989Z,42.33
2018-04-16T23:13:31.381Z,42.60
2018-04-16T23:15:58.876Z,43.53
2018-04-16T23:18:26.260Z,43.73
2018-04-16T23:20:53.657Z,44.10
2018-04-16T23:23:21.027Z,44.27
2018-04-16T23:25:48.408Z,42.90
2018-04-16T23:28:15.838Z,44.17
2018-04-16T23:30:43.269Z,43.13
2018-04-16T23:33:10.656Z,41.87
2018-04-16T23:35:38.010Z,43.77
2018-04-16T23:38:05.453Z,42.17
2018-04-16T23:40:32.818Z,41.57
2018-04-16T23:43:00.179Z,39.40
2018-04-16T23:45:27.615Z,39.50
2018-04-16T23:47:54.996Z,39.10
2018-04-16T23:50:22.439Z,38.47
2018-04-16T23:52:49.823Z,39.27
2018-04-16T23:55:17.224Z,40.07
2018-04-16T23:57:44.620Z,38.57
